Time,TemperatureF,DewpointF,PressureIn,WindDirection,WindDirectionDegrees,WindSpeedMPH,WindSpeedGustMPH,Humidity,HourlyPrecipIn,Conditions,Clouds,dailyrainin,SoftwareType,DateUTC
2013-07-01 00:04:00,66.4,64.0,29.76,WSW,243,0.0,4.0,92,0.00,,,0.00,Wunderground v.1.15,2013-07-01 05:04:00,
2013-07-01 00:09:00,66.2,64.1,29.76,SW,216,0.0,4.0,93,0.00,,,0.00,Wunderground v.1.15,2013-07-01 05:09:00,
2013-07-01 00:15:00,66.1,64.0,29.76,SSW,212,0.0,4.0,93,0.00,,,0.00,Wunderground v.1.15,2013-07-01 05:15:00,
2013-07-01 00:20:00,66.0,63.9,29.76,SSW,212,0.0,4.0,93,0.00,,,0.00,Wunderground v.1.15,2013-07-01 05:20:00,
2013-07-01 00:26:00,65.8,64.0,29.76,South,180,0.0,4.0,94,0.00,,,0.00,Wunderground v.1.15,2013-07-01 05:26:00,
2013-07-01 00:32:00,65.6,63.8,29.76,South,185,0.0,4.0,94,0.00,,,0.00,Wunderground v.1.15,2013-07-01 05:32:00,
2013-07-01 00:38:00,65.5,63.7,29.75,South,185,0.0,4.0,94,0.00,,,0.00,Wunderground v.1.15,2013-07-01 05:38:00,
2013-07-01 00:43:00,65.4,63.6,29.75,SSW,201,0.0,4.0,94,0.00,,,0.00,Wunderground v.1.15,2013-07-01 05:43:00,
2013-07-01 00:48:00,65.2,63.4,29.75,SSW,201,0.0,4.0,94,0.00,,,0.00,Wunderground v.1.15,2013-07-01 05:48:00,
2013-07-01 00:54:00,65.1,63.3,29.76,SSW,212,0.0,4.0,94,0.00,,,0.00,Wunderground v.1.15,2013-07-01 05:54:00,
2013-07-01 00:59:00,65.0,62.9,29.76,WSW,237,0.0,4.0,93,0.00,,,0.00,Wunderground v.1.15,2013-07-01 05:59:00,
2013-07-01 01:05:00,65.1,63.3,29.76,WSW,238,0.0,4.0,94,0.00,,,0.00,Wunderground v.1.15,2013-07-01 06:05:00,
2013-07-01 01:10:00,64.9,63.1,29.75,WSW,237,0.0,4.0,94,0.00,,,0.00,Wunderground v.1.15,2013-07-01 06:10:00,
2013-07-01 01:16:00,64.6,62.8,29.75,WSW,237,0.0,4.0,94,0.00,,,0.00,Wunderground v.1.15,2013-07-01 06:16:00,
2013-07-01 01:21:00,64.4,62.6,29.75,WSW,238,0.0,4.0,94,0.00,,,0.00,Wunderground v.1.15,2013-07-01 06:21:00,
2013-07-01 01:26:00,64.2,62.4,29.75,WSW,238,0.0,4.0,94,0.00,,,0.00,Wunderground v.1.15,2013-07-01 06:26:00,
2013-07-01 01:32:00,64.2,62.4,29.75,WSW,237,0.0,4.0,94,0.00,,,0.00,Wunderground v.1.15,2013-07-01 06:32:00,
2013-07-01 01:37:00,64.2,62.4,29.75,WSW,237,0.0,4.0,94,0.00,,,0.00,Wunderground v.1.15,2013-07-01 06:37:00,
2013-07-01 01:42:00,64.1,62.3,29.75,WSW,237,0.0,4.0,94,0.00,,,0.00,Wunderground v.1.15,2013-07-01 06:42:00,
2013-07-01 01:48:00,64.0,62.2,29.75,WSW,239,0.0,4.0,94,0.00,,,0.00,Wunderground v.1.15,2013-07-01 06:48:00,
2013-07-01 01:53:00,64.1,62.6,29.75,WSW,237,0.0,4.0,95,0.00,,,0.00,Wunderground v.1.15,2013-07-01 06:53:00,
2013-07-01 01:59:00,63.9,62.1,29.75,WSW,237,0.0,4.0,94,0.00,,,0.00,Wunderground v.1.15,2013-07-01 06:59:00,
2013-07-01 02:04:00,63.9,62.4,29.75,WSW,238,0.0,4.0,95,0.00,,,0.00,Wunderground v.1.15,2013-07-01 07:04:00,
2013-07-01 02:09:00,63.9,62.1,29.75,WSW,238,0.0,4.0,94,0.00,,,0.00,Wunderground v.1.15,2013-07-01 07:09:00,
2013-07-01 02:15:00,63.7,61.9,29.75,WSW,237,0.0,4.0,94,0.00,,,0.00,Wunderground v.1.15,2013-07-01 07:15:00,
2013-07-01 02:20:00,63.6,61.8,29.75,SW,220,0.0,4.0,94,0.00,,,0.00,Wunderground v.1.15,2013-07-01 07:20:00,
2013-07-01 02:26:00,63.8,61.7,29.75,ESE,117,0.0,4.0,93,0.00,,,0.00,Wunderground v.1.15,2013-07-01 07:26:00,
2013-07-01 02:31:00,63.8,61.4,29.75,ESE,117,0.0,4.0,92,0.00,,,0.00,Wunderground v.1.15,2013-07-01 07:31:00,
2013-07-01 02:36:00,63.7,61.3,29.75,ESE,117,0.0,4.0,92,0.00,,,0.00,Wunderground v.1.15,2013-07-01 07:36:00,
2013-07-01 02:42:00,63.5,61.4,29.75,ESE,117,0.0,4.0,93,0.00,,,0.00,Wunderground v.1.15,2013-07-01 07:42:00,
2013-07-01 02:47:00,63.4,61.3,29.75,ESE,117,0.0,4.0,93,0.00,,,0.00,Wunderground v.1.15,2013-07-01 07:47:00,
2013-07-01 02:52:00,63.2,61.4,29.76,ESE,117,0.0,4.0,94,0.00,,,0.00,Wunderground v.1.15,2013-07-01 07:52:00,
2013-07-01 02:58:00,63.0,61.2,29.75,ESE,117,0.0,4.0,94,0.00,,,0.00,Wunderground v.1.15,2013-07-01 07:58:00,
2013-07-01 03:03:00,62.9,61.1,29.75,ESE,120,0.0,4.0,94,0.00,,,0.00,Wunderground v.1.15,2013-07-01 08:03:00,
2013-07-01 03:08:00,62.9,61.1,29.75,ESE,120,0.0,4.0,94,0.00,,,0.00,Wunderground v.1.15,2013-07-01 08:08:00,
2013-07-01 03:14:00,62.9,61.4,29.75,ESE,120,0.0,4.0,95,0.00,,,0.00,Wunderground v.1.15,2013-07-01 08:14:00,
2013-07-01 03:19:00,62.8,61.0,29.75,ESE,119,0.0,4.0,94,0.00,,,0.00,Wunderground v.1.15,2013-07-01 08:19:00,
2013-07-01 03:24:00,62.7,60.9,29.75,ESE,120,0.0,4.0,94,0.00,,,0.00,Wunderground v.1.15,2013-07-01 08:24:00,
2013-07-01 03:30:00,62.6,61.1,29.75,ESE,120,0.0,4.0,95,0.00,,,0.00,Wunderground v.1.15,2013-07-01 08:30:00,
2013-07-01 03:35:00,62.5,61.0,29.75,ESE,119,0.0,4.0,95,0.00,,,0.00,Wunderground v.1.15,2013-07-01 08:35:00,
2013-07-01 03:40:00,62.3,60.8,29.75,ESE,120,0.0,4.0,95,0.00,,,0.00,Wunderground v.1.15,2013-07-01 08:40:00,
2013-07-01 03:46:00,62.2,60.8,29.75,ESE,120,0.0,4.0,95,0.00,,,0.00,Wunderground v.1.15,2013-07-01 08:46:00,
2013-07-01 03:51:00,62.1,60.7,29.75,ESE,120,0.0,4.0,95,0.00,,,0.00,Wunderground v.1.15,2013-07-01 08:51:00,
2013-07-01 03:57:00,62.0,60.6,29.75,ESE,119,0.0,4.0,95,0.00,,,0.00,Wunderground v.1.15,2013-07-01 08:57:00,
2013-07-01 04:02:00,62.0,60.6,29.75,ESE,120,0.0,4.0,95,0.00,,,0.00,Wunderground v.1.15,2013-07-01 09:02:00,
2013-07-01 04:07:00,62.0,60.6,29.75,ESE,119,0.0,4.0,95,0.00,,,0.00,Wunderground v.1.15,2013-07-01 09:07:00,
2013-07-01 04:13:00,61.9,60.5,29.75,ESE,120,0.0,4.0,95,0.00,,,0.00,Wunderground v.1.15,2013-07-01 09:13:00,
2013-07-01 04:18:00,61.9,60.5,29.75,ESE,120,0.0,4.0,95,0.00,,,0.00,Wunderground v.1.15,2013-07-01 09:18:00,
2013-07-01 04:23:00,61.8,60.4,29.75,ESE,120,0.0,4.0,95,0.00,,,0.00,Wunderground v.1.15,2013-07-01 09:23:00,
2013-07-01 04:29:00,61.7,60.3,29.75,SE,127,0.0,4.0,95,0.00,,,0.00,Wunderground v.1.15,2013-07-01 09:29:00,
2013-07-01 04:34:00,61.7,60.5,29.76,SSW,209,0.0,4.0,96,0.00,,,0.00,Wunderground v.1.15,2013-07-01 09:34:00,
2013-07-01 04:40:00,61.7,60.5,29.76,South,188,0.0,4.0,96,0.00,,,0.00,Wunderground v.1.15,2013-07-01 09:40:00,
2013-07-01 04:45:00,61.6,60.4,29.76,SSW,205,0.0,4.0,96,0.00,,,0.00,Wunderground v.1.15,2013-07-01 09:45:00,
2013-07-01 04:50:00,61.5,60.3,29.76,SSW,211,0.0,4.0,96,0.00,,,0.00,Wunderground v.1.15,2013-07-01 09:50:00,
2013-07-01 04:56:00,61.4,60.2,29.76,SSW,211,0.0,4.0,96,0.00,,,0.00,Wunderground v.1.15,2013-07-01 09:56:00,
2013-07-01 05:01:00,61.5,60.3,29.76,SSW,211,0.0,4.0,96,0.00,,,0.00,Wunderground v.1.15,2013-07-01 10:01:00,
2013-07-01 05:06:00,61.4,60.2,29.77,SSW,211,0.0,4.0,96,0.00,,,0.00,Wunderground v.1.15,2013-07-01 10:06:00,
2013-07-01 05:12:00,61.3,60.2,29.77,SSW,210,0.0,4.0,96,0.00,,,0.00,Wunderground v.1.15,2013-07-01 10:12:00,
2013-07-01 05:17:00,61.3,60.2,29.77,SSW,210,0.0,4.0,96,0.00,,,0.00,Wunderground v.1.15,2013-07-01 10:17:00,
2013-07-01 05:22:00,61.2,60.1,29.77,SSW,210,0.0,4.0,96,0.00,,,0.00,Wunderground v.1.15,2013-07-01 10:22:00,
2013-07-01 05:28:00,61.2,60.1,29.77,SSW,211,0.0,4.0,96,0.00,,,0.00,Wunderground v.1.15,2013-07-01 10:28:00,
2013-07-01 05:33:00,61.3,60.2,29.77,SSW,212,0.0,4.0,96,0.00,,,0.00,Wunderground v.1.15,2013-07-01 10:33:00,
2013-07-01 05:39:00,61.2,60.1,29.78,SSW,212,0.0,4.0,96,0.00,,,0.00,Wunderground v.1.15,2013-07-01 10:39:00,
2013-07-01 05:44:00,61.2,60.1,29.78,SSW,212,0.0,4.0,96,0.00,,,0.00,Wunderground v.1.15,2013-07-01 10:44:00,
2013-07-01 05:49:00,61.1,60.0,29.78,SSW,212,0.0,4.0,96,0.00,,,0.00,Wunderground v.1.15,2013-07-01 10:49:00,
2013-07-01 05:55:00,61.0,59.9,29.78,SSE,155,0.0,4.0,96,0.00,,,0.00,Wunderground v.1.15,2013-07-01 10:55:00,
2013-07-01 06:00:00,61.1,60.0,29.79,SSE,155,0.0,4.0,96,0.00,,,0.00,Wunderground v.1.15,2013-07-01 11:00:00,
2013-07-01 06:05:00,61.3,60.4,29.79,SSE,155,0.0,4.0,97,0.00,,,0.00,Wunderground v.1.15,2013-07-01 11:05:00,
2013-07-01 06:11:00,61.3,60.4,29.79,SSE,155,0.0,4.0,97,0.00,,,0.00,Wunderground v.1.15,2013-07-01 11:11:00,
2013-07-01 06:16:00,61.5,60.6,29.79,South,176,0.0,4.0,97,0.00,,,0.00,Wunderground v.1.15,2013-07-01 11:16:00,
2013-07-01 06:22:00,61.5,60.6,29.80,South,175,0.0,4.0,97,0.00,,,0.00,Wunderground v.1.15,2013-07-01 11:22:00,
2013-07-01 06:27:00,61.6,60.7,29.80,South,188,0.0,4.0,97,0.00,,,0.00,Wunderground v.1.15,2013-07-01 11:27:00,
2013-07-01 06:32:00,61.7,60.8,29.80,South,188,0.0,4.0,97,0.00,,,0.00,Wunderground v.1.15,2013-07-01 11:32:00,
2013-07-01 06:38:00,61.8,60.9,29.80,South,187,0.0,4.0,97,0.00,,,0.00,Wunderground v.1.15,2013-07-01 11:38:00,
2013-07-01 06:43:00,62.0,61.1,29.80,South,188,0.0,4.0,97,0.00,,,0.00,Wunderground v.1.15,2013-07-01 11:43:00,
2013-07-01 06:48:00,62.0,61.1,29.80,South,188,0.0,4.0,97,0.00,,,0.00,Wunderground v.1.15,2013-07-01 11:48:00,
2013-07-01 06:54:00,62.2,61.3,29.80,SW,224,0.0,4.0,97,0.00,,,0.00,Wunderground v.1.15,2013-07-01 11:54:00,
2013-07-01 06:59:00,62.2,61.3,29.80,WSW,257,0.0,4.0,97,0.00,,,0.00,Wunderground v.1.15,2013-07-01 11:59:00,
2013-07-01 07:04:00,62.4,61.5,29.80,WSW,254,0.0,4.0,97,0.00,,,0.00,Wunderground v.1.15,2013-07-01 12:04:00,
2013-07-01 07:10:00,62.4,61.5,29.81,WSW,256,0.0,4.0,97,0.00,,,0.00,Wunderground v.1.15,2013-07-01 12:10:00,
2013-07-01 07:16:00,62.8,61.9,29.80,WSW,254,0.0,4.0,97,0.00,,,0.00,Wunderground v.1.15,2013-07-01 12:16:00,
2013-07-01 07:22:00,63.2,62.3,29.80,WSW,252,0.0,4.0,97,0.00,,,0.00,Wunderground v.1.15,2013-07-01 12:22:00,
2013-07-01 07:27:00,63.5,62.6,29.81,WSW,252,0.0,4.0,97,0.00,,,0.00,Wunderground v.1.15,2013-07-01 12:27:00,
2013-07-01 07:32:00,63.9,62.7,29.81,WSW,245,0.0,4.0,96,0.00,,,0.00,Wunderground v.1.15,2013-07-01 12:32:00,
2013-07-01 07:38:00,64.3,63.1,29.81,WSW,245,0.0,4.0,96,0.00,,,0.00,Wunderground v.1.15,2013-07-01 12:38:00,
2013-07-01 07:43:00,64.6,63.4,29.82,SW,233,0.0,4.0,96,0.00,,,0.00,Wunderground v.1.15,2013-07-01 12:43:00,
2013-07-01 07:49:00,65.0,63.5,29.82,SW,223,0.0,4.0,95,0.00,,,0.00,Wunderground v.1.15,2013-07-01 12:49:00,
2013-07-01 07:54:00,65.4,63.9,29.82,SSE,167,0.0,4.0,95,0.00,,,0.00,Wunderground v.1.15,2013-07-01 12:54:00,
2013-07-01 08:00:00,65.9,64.1,29.82,WSW,248,0.0,4.0,94,0.00,,,0.00,Wunderground v.1.15,2013-07-01 13:00:00,
2013-07-01 08:06:00,66.3,64.2,29.82,WSW,246,0.0,4.0,93,0.00,,,0.00,Wunderground v.1.15,2013-07-01 13:06:00,
2013-07-01 08:11:00,66.8,64.7,29.82,South,173,0.0,4.0,93,0.00,,,0.00,Wunderground v.1.15,2013-07-01 13:11:00,
2013-07-01 08:17:00,67.3,64.9,29.82,WSW,238,0.0,4.0,92,0.00,,,0.00,Wunderground v.1.15,2013-07-01 13:17:00,
2013-07-01 08:22:00,67.9,65.2,29.82,WSW,251,0.0,4.0,91,0.00,,,0.00,Wunderground v.1.15,2013-07-01 13:22:00,
2013-07-01 08:28:00,68.4,65.7,29.82,South,187,0.0,4.0,91,0.00,,,0.00,Wunderground v.1.15,2013-07-01 13:28:00,
2013-07-01 08:33:00,69.1,66.0,29.82,SSW,213,0.0,4.0,90,0.00,,,0.00,Wunderground v.1.15,2013-07-01 13:33:00,
2013-07-01 08:39:00,69.7,66.6,29.82,SSE,162,0.0,4.0,90,0.00,,,0.00,Wunderground v.1.15,2013-07-01 13:39:00,
2013-07-01 08:44:00,70.0,66.6,29.82,SW,220,0.0,4.0,89,0.00,,,0.00,Wunderground v.1.15,2013-07-01 13:44:00,
2013-07-01 08:49:00,70.3,66.9,29.82,South,187,0.0,4.0,89,0.00,,,0.00,Wunderground v.1.15,2013-07-01 13:49:00,
2013-07-01 08:55:00,70.9,66.8,29.82,South,186,0.0,4.0,87,0.00,,,0.00,Wunderground v.1.15,2013-07-01 13:55:00,
2013-07-01 09:00:00,71.4,67.7,29.83,South,187,0.0,4.0,88,0.00,,,0.00,Wunderground v.1.15,2013-07-01 14:00:00,
2013-07-01 09:05:00,72.0,68.6,29.82,South,187,0.0,4.0,89,0.00,,,0.00,Wunderground v.1.15,2013-07-01 14:05:00,
2013-07-01 09:11:00,72.1,67.7,29.82,SE,140,0.0,4.0,86,0.00,,,0.00,Wunderground v.1.15,2013-07-01 14:11:00,
2013-07-01 09:16:00,72.2,67.4,29.82,SE,140,0.0,4.0,85,0.00,,,0.00,Wunderground v.1.15,2013-07-01 14:16:00,
2013-07-01 09:21:00,73.0,68.2,29.82,NE,48,0.0,4.0,85,0.00,,,0.00,Wunderground v.1.15,2013-07-01 14:21:00,
2013-07-01 09:27:00,73.3,67.5,29.82,SSW,212,0.0,4.0,82,0.00,,,0.00,Wunderground v.1.15,2013-07-01 14:27:00,
2013-07-01 09:32:00,73.7,68.2,29.82,SSE,156,1.0,4.0,83,0.00,,,0.00,Wunderground v.1.15,2013-07-01 14:32:00,
2013-07-01 09:38:00,74.0,68.2,29.82,SW,228,0.0,4.0,82,0.00,,,0.00,Wunderground v.1.15,2013-07-01 14:38:00,
2013-07-01 09:44:00,74.1,68.3,29.82,WSW,251,1.0,4.0,82,0.00,,,0.00,Wunderground v.1.15,2013-07-01 14:44:00,
2013-07-01 09:49:00,74.5,69.3,29.81,NE,36,1.0,4.0,84,0.00,,,0.00,Wunderground v.1.15,2013-07-01 14:49:00,
2013-07-01 09:54:00,75.0,69.1,29.81,NE,54,0.0,4.0,82,0.00,,,0.00,Wunderground v.1.15,2013-07-01 14:54:00,
2013-07-01 10:00:00,75.3,69.1,29.81,North,358,0.0,4.0,81,0.00,,,0.00,Wunderground v.1.15,2013-07-01 15:00:00,
2013-07-01 10:05:00,75.7,69.5,29.82,WNW,294,1.0,4.0,81,0.00,,,0.00,Wunderground v.1.15,2013-07-01 15:05:00,
2013-07-01 10:10:00,76.0,69.0,29.82,SW,229,1.0,4.0,79,0.00,,,0.00,Wunderground v.1.15,2013-07-01 15:10:00,
2013-07-01 10:16:00,76.6,69.6,29.82,NNW,348,1.0,4.0,79,0.00,,,0.00,Wunderground v.1.15,2013-07-01 15:16:00,
2013-07-01 10:21:00,77.2,70.2,29.82,WNW,296,1.0,4.0,79,0.00,,,0.00,Wunderground v.1.15,2013-07-01 15:21:00,
2013-07-01 10:27:00,77.4,69.6,29.82,NNW,337,0.0,4.0,77,0.00,,,0.00,Wunderground v.1.15,2013-07-01 15:27:00,
2013-07-01 10:33:00,77.9,70.9,29.82,NW,317,0.0,4.0,79,0.00,,,0.00,Wunderground v.1.15,2013-07-01 15:33:00,
2013-07-01 10:38:00,78.1,69.1,29.81,NNW,337,1.0,4.0,74,0.00,,,0.00,Wunderground v.1.15,2013-07-01 15:38:00,
2013-07-01 10:43:00,78.5,69.9,29.81,North,353,2.0,4.0,75,0.00,,,0.00,Wunderground v.1.15,2013-07-01 15:43:00,
2013-07-01 10:48:00,78.9,69.5,29.81,NE,55,1.0,4.0,73,0.00,,,0.00,Wunderground v.1.15,2013-07-01 15:48:00,
2013-07-01 10:54:00,79.0,69.2,29.81,North,4,1.0,4.0,72,0.00,,,0.00,Wunderground v.1.15,2013-07-01 15:54:00,
2013-07-01 10:59:00,78.9,69.1,29.81,NNW,348,1.0,4.0,72,0.00,,,0.00,Wunderground v.1.15,2013-07-01 15:59:00,
2013-07-01 11:05:00,78.9,69.1,29.81,North,351,2.0,4.0,72,0.00,,,0.00,Wunderground v.1.15,2013-07-01 16:05:00,
2013-07-01 11:10:00,78.2,69.2,29.81,NE,39,2.0,2.0,74,0.00,,,0.00,Wunderground v.1.15,2013-07-01 16:10:00,
2013-07-01 11:15:00,77.9,68.9,29.80,WNW,293,1.0,4.0,74,0.00,,,0.00,Wunderground v.1.15,2013-07-01 16:15:00,
2013-07-01 11:20:00,78.5,69.9,29.80,NNE,15,1.0,4.0,75,0.00,,,0.00,Wunderground v.1.15,2013-07-01 16:20:00,
2013-07-01 11:26:00,78.8,70.6,29.80,WNW,286,1.0,4.0,76,0.00,,,0.00,Wunderground v.1.15,2013-07-01 16:26:00,
2013-07-01 11:31:00,78.9,71.5,29.80,NNW,343,1.0,4.0,78,0.00,,,0.00,Wunderground v.1.15,2013-07-01 16:31:00,
2013-07-01 11:37:00,78.7,69.7,29.80,North,356,1.0,4.0,74,0.00,,,0.00,Wunderground v.1.15,2013-07-01 16:37:00,
2013-07-01 11:42:00,78.3,70.9,29.80,NNW,331,1.0,4.0,78,0.00,,,0.00,Wunderground v.1.15,2013-07-01 16:42:00,
2013-07-01 11:48:00,78.3,69.7,29.80,NW,306,1.0,4.0,75,0.00,,,0.00,Wunderground v.1.15,2013-07-01 16:48:00,
2013-07-01 11:53:00,78.2,70.4,29.80,NW,306,1.0,4.0,77,0.00,,,0.00,Wunderground v.1.15,2013-07-01 16:53:00,
2013-07-01 11:59:00,77.5,70.1,29.80,NNW,345,1.0,4.0,78,0.00,,,0.00,Wunderground v.1.15,2013-07-01 16:59:00,
2013-07-01 12:04:00,76.7,69.3,29.80,North,358,1.0,4.0,78,0.00,,,0.00,Wunderground v.1.15,2013-07-01 17:04:00,
2013-07-01 12:10:00,75.9,68.9,29.80,NNE,13,1.0,4.0,79,0.00,,,0.00,Wunderground v.1.15,2013-07-01 17:10:00,
2013-07-01 12:15:00,74.8,67.5,29.81,NNE,20,1.0,8.0,78,0.00,,,0.00,Wunderground v.1.15,2013-07-01 17:15:00,
2013-07-01 12:21:00,73.2,65.6,29.81,NNW,339,2.0,4.0,77,0.00,,,0.00,Wunderground v.1.15,2013-07-01 17:21:00,
2013-07-01 12:26:00,70.7,63.9,29.81,NNW,330,3.0,4.0,79,0.00,,,0.00,Wunderground v.1.15,2013-07-01 17:26:00,
2013-07-01 12:32:00,69.6,64.2,29.82,NE,51,2.0,4.0,83,0.00,,,0.00,Wunderground v.1.15,2013-07-01 17:32:00,
2013-07-01 12:37:00,68.6,63.9,29.81,NNW,337,2.0,4.0,85,0.00,,,0.01,Wunderground v.1.15,2013-07-01 17:37:00,
2013-07-01 12:43:00,68.2,64.5,29.80,ENE,68,1.0,4.0,88,0.14,,,0.02,Wunderground v.1.15,2013-07-01 17:43:00,
2013-07-01 12:48:00,68.1,64.4,29.80,WNW,295,1.0,4.0,88,0.08,,,0.02,Wunderground v.1.15,2013-07-01 17:48:00,
2013-07-01 12:53:00,69.0,66.3,29.80,ENE,67,1.0,4.0,91,0.05,,,0.02,Wunderground v.1.15,2013-07-01 17:53:00,
2013-07-01 12:58:00,69.6,65.9,29.80,ENE,68,1.0,4.0,88,0.00,,,0.02,Wunderground v.1.15,2013-07-01 17:58:00,
2013-07-01 13:04:00,69.8,66.1,29.80,ESE,118,1.0,4.0,88,0.00,,,0.02,Wunderground v.1.15,2013-07-01 18:04:00,
2013-07-01 13:09:00,70.5,67.4,29.81,WSW,237,1.0,4.0,90,0.00,,,0.02,Wunderground v.1.15,2013-07-01 18:09:00,
2013-07-01 13:14:00,71.1,67.0,29.81,North,349,1.0,4.0,87,0.00,,,0.02,Wunderground v.1.15,2013-07-01 18:14:00,
2013-07-01 13:20:00,72.0,67.2,29.81,WSW,254,0.0,4.0,85,0.00,,,0.02,Wunderground v.1.15,2013-07-01 18:20:00,
2013-07-01 13:25:00,73.5,69.1,29.81,WSW,237,0.0,4.0,86,0.00,,,0.02,Wunderground v.1.15,2013-07-01 18:25:00,
2013-07-01 13:31:00,74.1,70.0,29.81,SW,233,1.0,4.0,87,0.00,,,0.02,Wunderground v.1.15,2013-07-01 18:31:00,
2013-07-01 13:36:00,74.0,69.2,29.81,WSW,242,1.0,4.0,85,0.00,,,0.02,Wunderground v.1.15,2013-07-01 18:36:00,
2013-07-01 13:41:00,74.8,69.6,29.80,SSE,150,1.0,4.0,84,0.00,,,0.02,Wunderground v.1.15,2013-07-01 18:41:00,
2013-07-01 13:47:00,75.3,69.1,29.80,SW,214,1.0,4.0,81,0.00,,,0.02,Wunderground v.1.15,2013-07-01 18:47:00,
2013-07-01 13:52:00,75.5,67.8,29.80,ENE,60,1.0,4.0,77,0.00,,,0.02,Wunderground v.1.15,2013-07-01 18:52:00,
2013-07-01 13:58:00,75.6,68.3,29.80,SW,234,1.0,4.0,78,0.00,,,0.02,Wunderground v.1.15,2013-07-01 18:58:00,
2013-07-01 14:03:00,76.1,70.2,29.80,West,269,1.0,4.0,82,0.00,,,0.02,Wunderground v.1.15,2013-07-01 19:03:00,
2013-07-01 14:09:00,77.0,70.4,29.80,WSW,253,1.0,4.0,80,0.00,,,0.02,Wunderground v.1.15,2013-07-01 19:09:00,
2013-07-01 14:14:00,77.5,69.7,29.80,WSW,248,1.0,4.0,77,0.00,,,0.02,Wunderground v.1.15,2013-07-01 19:14:00,
2013-07-01 14:19:00,77.6,69.8,29.80,WNW,287,1.0,1.0,77,0.00,,,0.02,Wunderground v.1.15,2013-07-01 19:19:00,
2013-07-01 14:25:00,78.2,69.6,29.80,NNW,337,0.0,4.0,75,0.00,,,0.02,Wunderground v.1.15,2013-07-01 19:25:00,
2013-07-01 14:31:00,79.0,70.8,29.80,West,263,1.0,2.0,76,0.00,,,0.02,Wunderground v.1.15,2013-07-01 19:31:00,
2013-07-01 14:37:00,79.1,70.1,29.80,SE,136,1.0,4.0,74,0.00,,,0.02,Wunderground v.1.15,2013-07-01 19:37:00,
2013-07-01 14:42:00,79.0,70.4,29.79,SSW,208,1.0,4.0,75,0.00,,,0.02,Wunderground v.1.15,2013-07-01 19:42:00,
2013-07-01 14:47:00,79.7,70.7,29.79,WSW,245,1.0,4.0,74,0.00,,,0.02,Wunderground v.1.15,2013-07-01 19:47:00,
2013-07-01 14:53:00,79.9,68.8,29.79,ENE,65,1.0,4.0,69,0.00,,,0.02,Wunderground v.1.15,2013-07-01 19:53:00,
2013-07-01 14:59:00,80.1,70.3,29.79,ENE,77,1.0,4.0,72,0.00,,,0.02,Wunderground v.1.15,2013-07-01 19:59:00,
2013-07-01 15:04:00,80.1,71.1,29.79,SW,231,1.0,4.0,74,0.00,,,0.02,Wunderground v.1.15,2013-07-01 20:04:00,
2013-07-01 15:09:00,79.8,69.6,29.79,WSW,244,1.0,1.0,71,0.00,,,0.02,Wunderground v.1.15,2013-07-01 20:09:00,
2013-07-01 15:15:00,79.9,68.4,29.79,NE,46,1.0,4.0,68,0.00,,,0.02,Wunderground v.1.15,2013-07-01 20:15:00,
2013-07-01 15:21:00,80.7,69.6,29.79,WSW,241,1.0,4.0,69,0.00,,,0.02,Wunderground v.1.15,2013-07-01 20:21:00,
2013-07-01 15:26:00,81.4,71.1,29.79,SE,139,1.0,4.0,71,0.00,,,0.02,Wunderground v.1.15,2013-07-01 20:26:00,
2013-07-01 15:32:00,81.8,69.3,29.79,WNW,293,1.0,4.0,66,0.00,,,0.02,Wunderground v.1.15,2013-07-01 20:32:00,
2013-07-01 15:37:00,82.4,69.9,29.79,NNW,332,1.0,4.0,66,0.00,,,0.02,Wunderground v.1.15,2013-07-01 20:37:00,
2013-07-01 15:42:00,82.7,70.2,29.79,NE,53,1.0,4.0,66,0.00,,,0.02,Wunderground v.1.15,2013-07-01 20:42:00,
2013-07-01 15:48:00,82.5,69.5,29.79,NNW,332,1.0,4.0,65,0.00,,,0.02,Wunderground v.1.15,2013-07-01 20:48:00,
2013-07-01 15:53:00,83.0,70.5,29.78,NNE,16,1.0,4.0,66,0.00,,,0.02,Wunderground v.1.15,2013-07-01 20:53:00,
2013-07-01 15:59:00,83.4,69.9,29.78,NE,43,0.0,4.0,64,0.00,,,0.02,Wunderground v.1.15,2013-07-01 20:59:00,
2013-07-01 16:04:00,83.3,69.8,29.78,West,280,1.0,4.0,64,0.00,,,0.02,Wunderground v.1.15,2013-07-01 21:04:00,
2013-07-01 16:10:00,83.6,71.0,29.78,NW,317,0.0,4.0,66,0.00,,,0.02,Wunderground v.1.15,2013-07-01 21:10:00,
2013-07-01 16:15:00,83.1,71.0,29.78,NE,36,0.0,4.0,67,0.00,,,0.02,Wunderground v.1.15,2013-07-01 21:15:00,
2013-07-01 16:20:00,82.9,69.9,29.77,North,2,1.0,4.0,65,0.00,,,0.02,Wunderground v.1.15,2013-07-01 21:20:00,
2013-07-01 16:26:00,82.8,69.4,29.77,ENE,58,1.0,4.0,64,0.00,,,0.02,Wunderground v.1.15,2013-07-01 21:26:00,
2013-07-01 16:31:00,82.4,70.3,29.77,NE,43,1.0,4.0,67,0.00,,,0.02,Wunderground v.1.15,2013-07-01 21:31:00,
2013-07-01 16:36:00,81.8,68.9,29.77,NNE,17,1.0,4.0,65,0.00,,,0.02,Wunderground v.1.15,2013-07-01 21:36:00,
2013-07-01 16:42:00,81.2,68.3,29.77,NNE,16,1.0,4.0,65,0.00,,,0.02,Wunderground v.1.15,2013-07-01 21:42:00,
2013-07-01 16:47:00,80.2,68.2,29.78,NE,41,1.0,4.0,67,0.00,,,0.02,Wunderground v.1.15,2013-07-01 21:47:00,
2013-07-01 16:52:00,79.4,67.5,29.78,ENE,75,0.0,4.0,67,0.00,,,0.02,Wunderground v.1.15,2013-07-01 21:52:00,
2013-07-01 16:58:00,78.5,67.9,29.78,ENE,73,0.0,4.0,70,0.00,,,0.02,Wunderground v.1.15,2013-07-01 21:58:00,
2013-07-01 17:03:00,77.9,67.7,29.78,East,88,1.0,4.0,71,0.00,,,0.02,Wunderground v.1.15,2013-07-01 22:03:00,
2013-07-01 17:09:00,77.6,69.0,29.79,ESE,117,1.0,4.0,75,0.00,,,0.02,Wunderground v.1.15,2013-07-01 22:09:00,
2013-07-01 17:15:00,77.4,70.0,29.78,ESE,116,1.0,4.0,78,0.00,,,0.02,Wunderground v.1.15,2013-07-01 22:15:00,
2013-07-01 17:20:00,78.2,70.0,29.78,SE,128,0.0,4.0,76,0.00,,,0.02,Wunderground v.1.15,2013-07-01 22:20:00,
2013-07-01 17:25:00,78.9,69.5,29.79,SE,130,0.0,4.0,73,0.00,,,0.02,Wunderground v.1.15,2013-07-01 22:25:00,
2013-07-01 17:31:00,79.0,70.0,29.79,SE,130,0.0,4.0,74,0.00,,,0.02,Wunderground v.1.15,2013-07-01 22:31:00,
2013-07-01 17:36:00,78.3,68.1,29.79,South,190,1.0,4.0,71,0.00,,,0.02,Wunderground v.1.15,2013-07-01 22:36:00,
2013-07-01 17:42:00,77.7,69.1,29.79,East,100,1.0,4.0,75,0.00,,,0.02,Wunderground v.1.15,2013-07-01 22:42:00,
2013-07-01 17:47:00,76.7,67.8,29.79,SSW,212,1.0,4.0,74,0.00,,,0.02,Wunderground v.1.15,2013-07-01 22:47:00,
2013-07-01 17:52:00,75.5,67.0,29.80,SW,216,1.0,4.0,75,0.00,,,0.02,Wunderground v.1.15,2013-07-01 22:52:00,
2013-07-01 17:58:00,74.8,67.1,29.80,ESE,117,2.0,4.0,77,0.00,,,0.02,Wunderground v.1.15,2013-07-01 22:58:00,
2013-07-01 18:03:00,74.1,66.0,29.80,ENE,77,1.0,4.0,76,0.00,,,0.02,Wunderground v.1.15,2013-07-01 23:03:00,
2013-07-01 18:08:00,73.8,65.8,29.80,NW,317,1.0,4.0,76,0.00,,,0.02,Wunderground v.1.15,2013-07-01 23:08:00,
2013-07-01 18:14:00,73.7,66.4,29.81,West,268,1.0,4.0,78,0.00,,,0.02,Wunderground v.1.15,2013-07-01 23:14:00,
2013-07-01 18:19:00,73.4,66.1,29.81,WSW,242,1.0,4.0,78,0.00,,,0.02,Wunderground v.1.15,2013-07-01 23:19:00,
2013-07-01 18:25:00,73.3,66.0,29.82,West,263,1.0,4.0,78,0.00,,,0.02,Wunderground v.1.15,2013-07-01 23:25:00,
2013-07-01 18:30:00,73.2,65.9,29.82,East,100,1.0,4.0,78,0.00,,,0.02,Wunderground v.1.15,2013-07-01 23:30:00,
2013-07-01 18:35:00,73.0,65.4,29.83,SSW,213,1.0,4.0,77,0.00,,,0.02,Wunderground v.1.15,2013-07-01 23:35:00,
2013-07-01 18:41:00,72.9,65.3,29.83,WSW,246,1.0,4.0,77,0.00,,,0.02,Wunderground v.1.15,2013-07-01 23:41:00,
2013-07-01 18:46:00,72.6,65.3,29.83,SW,231,2.0,4.0,78,0.00,,,0.02,Wunderground v.1.15,2013-07-01 23:46:00,
2013-07-01 18:52:00,72.7,65.8,29.83,WNW,294,2.0,4.0,79,0.00,,,0.02,Wunderground v.1.15,2013-07-01 23:52:00,
2013-07-01 18:58:00,72.2,66.7,29.84,West,266,1.0,4.0,83,0.38,,,0.05,Wunderground v.1.15,2013-07-01 23:58:00,
2013-07-01 19:03:00,70.9,66.2,29.84,SSE,168,1.0,4.0,85,0.19,,,0.06,Wunderground v.1.15,2013-07-02 00:03:00,
2013-07-01 19:09:00,70.0,66.0,29.83,WSW,248,1.0,4.0,87,0.41,,,0.09,Wunderground v.1.15,2013-07-02 00:09:00,
2013-07-01 19:14:00,69.2,66.5,29.83,SW,233,0.0,4.0,91,0.14,,,0.10,Wunderground v.1.15,2013-07-02 00:14:00,
2013-07-01 19:20:00,68.8,66.1,29.84,ESE,110,1.0,4.0,91,0.08,,,0.10,Wunderground v.1.15,2013-07-02 00:20:00,
2013-07-01 19:25:00,68.7,66.3,29.84,SW,228,1.0,4.0,92,0.05,,,0.10,Wunderground v.1.15,2013-07-02 00:25:00,
2013-07-01 19:30:00,68.7,66.6,29.84,SW,228,1.0,4.0,93,0.00,,,0.10,Wunderground v.1.15,2013-07-02 00:30:00,
2013-07-01 19:36:00,68.4,66.3,29.84,SW,223,1.0,4.0,93,0.00,,,0.10,Wunderground v.1.15,2013-07-02 00:36:00,
2013-07-01 19:41:00,68.2,66.1,29.84,SSW,203,0.0,4.0,93,0.00,,,0.10,Wunderground v.1.15,2013-07-02 00:41:00,
2013-07-01 19:46:00,67.9,66.1,29.84,SW,228,1.0,4.0,94,0.00,,,0.10,Wunderground v.1.15,2013-07-02 00:46:00,
2013-07-01 19:52:00,67.6,65.8,29.84,WSW,250,1.0,4.0,94,0.00,,,0.10,Wunderground v.1.15,2013-07-02 00:52:00,
2013-07-01 19:57:00,67.5,65.7,29.84,WSW,248,0.0,4.0,94,0.00,,,0.10,Wunderground v.1.15,2013-07-02 00:57:00,
2013-07-01 20:03:00,67.3,65.5,29.84,WSW,249,0.0,4.0,94,0.00,,,0.10,Wunderground v.1.15,2013-07-02 01:03:00,
2013-07-01 20:08:00,67.1,65.3,29.84,WSW,247,0.0,4.0,94,0.00,,,0.10,Wunderground v.1.15,2013-07-02 01:08:00,
2013-07-01 20:13:00,66.7,64.9,29.84,WSW,248,0.0,4.0,94,0.00,,,0.10,Wunderground v.1.15,2013-07-02 01:13:00,
2013-07-01 20:19:00,66.6,65.1,29.84,WSW,247,0.0,4.0,95,0.00,,,0.10,Wunderground v.1.15,2013-07-02 01:19:00,
2013-07-01 20:24:00,66.4,64.9,29.84,WSW,247,0.0,4.0,95,0.00,,,0.10,Wunderground v.1.15,2013-07-02 01:24:00,
2013-07-01 20:30:00,66.3,64.8,29.84,WSW,247,0.0,4.0,95,0.00,,,0.10,Wunderground v.1.15,2013-07-02 01:30:00,
2013-07-01 20:35:00,66.3,64.8,29.84,WSW,247,0.0,4.0,95,0.00,,,0.10,Wunderground v.1.15,2013-07-02 01:35:00,
2013-07-01 20:38:00,66.1,64.6,29.84,WSW,238,0.0,4.0,95,0.00,,,0.10,Wunderground v.1.15,2013-07-02 01:38:00,
2013-07-01 20:43:00,66.0,64.5,29.85,SW,233,1.0,4.0,95,0.00,,,0.10,Wunderground v.1.15,2013-07-02 01:43:00,
2013-07-01 20:49:00,66.0,64.5,29.85,SW,233,1.0,4.0,95,0.00,,,0.10,Wunderground v.1.15,2013-07-02 01:49:00,
2013-07-01 20:54:00,65.9,64.4,29.85,SW,224,1.0,4.0,95,0.00,,,0.10,Wunderground v.1.15,2013-07-02 01:54:00,
2013-07-01 20:59:00,65.7,64.5,29.85,SSW,207,1.0,1.0,96,0.00,,,0.10,Wunderground v.1.15,2013-07-02 01:59:00,
2013-07-01 21:05:00,65.7,64.5,29.85,SW,216,1.0,4.0,96,0.00,,,0.10,Wunderground v.1.15,2013-07-02 02:05:00,
2013-07-01 21:10:00,65.7,64.5,29.86,SW,219,1.0,4.0,96,0.00,,,0.10,Wunderground v.1.15,2013-07-02 02:10:00,
2013-07-01 21:15:00,65.7,64.5,29.86,SW,217,1.0,4.0,96,0.00,,,0.10,Wunderground v.1.15,2013-07-02 02:15:00,
2013-07-01 21:21:00,65.7,64.5,29.86,SW,217,0.0,4.0,96,0.00,,,0.10,Wunderground v.1.15,2013-07-02 02:21:00,
2013-07-01 21:26:00,65.6,64.4,29.86,SW,235,0.0,4.0,96,0.00,,,0.10,Wunderground v.1.15,2013-07-02 02:26:00,
2013-07-01 21:31:00,65.4,64.2,29.87,SW,234,0.0,4.0,96,0.00,,,0.10,Wunderground v.1.15,2013-07-02 02:31:00,
2013-07-01 21:37:00,65.4,64.2,29.87,SW,228,0.0,4.0,96,0.00,,,0.10,Wunderground v.1.15,2013-07-02 02:37:00,
2013-07-01 21:42:00,65.4,64.2,29.87,SW,228,0.0,4.0,96,0.00,,,0.10,Wunderground v.1.15,2013-07-02 02:42:00,
2013-07-01 21:47:00,65.2,64.0,29.87,SW,234,0.0,4.0,96,0.00,,,0.10,Wunderground v.1.15,2013-07-02 02:47:00,
2013-07-01 21:53:00,65.2,64.0,29.87,SW,233,0.0,4.0,96,0.00,,,0.10,Wunderground v.1.15,2013-07-02 02:53:00,
2013-07-01 21:58:00,65.1,63.9,29.87,SW,233,0.0,4.0,96,0.00,,,0.10,Wunderground v.1.15,2013-07-02 02:58:00,
2013-07-01 22:04:00,65.1,63.9,29.87,SW,233,0.0,4.0,96,0.00,,,0.10,Wunderground v.1.15,2013-07-02 03:04:00,
2013-07-01 22:09:00,65.1,63.9,29.87,WSW,252,0.0,4.0,96,0.00,,,0.10,Wunderground v.1.15,2013-07-02 03:09:00,
2013-07-01 22:14:00,65.0,63.8,29.87,WSW,249,0.0,4.0,96,0.00,,,0.10,Wunderground v.1.15,2013-07-02 03:14:00,
2013-07-01 22:20:00,65.1,64.2,29.87,ESE,122,0.0,4.0,97,0.00,,,0.10,Wunderground v.1.15,2013-07-02 03:20:00,
2013-07-01 22:25:00,65.0,64.1,29.88,ESE,122,0.0,4.0,97,0.00,,,0.10,Wunderground v.1.15,2013-07-02 03:25:00,
2013-07-01 22:30:00,65.1,64.2,29.88,ESE,122,0.0,4.0,97,0.00,,,0.10,Wunderground v.1.15,2013-07-02 03:30:00,
2013-07-01 22:36:00,65.1,64.2,29.87,ESE,122,0.0,4.0,97,0.00,,,0.10,Wunderground v.1.15,2013-07-02 03:36:00,
2013-07-01 22:41:00,65.1,64.2,29.87,South,179,0.0,4.0,97,0.00,,,0.10,Wunderground v.1.15,2013-07-02 03:41:00,
2013-07-01 22:46:00,65.1,64.2,29.88,South,179,0.0,4.0,97,0.00,,,0.10,Wunderground v.1.15,2013-07-02 03:46:00,
2013-07-01 22:52:00,65.1,64.2,29.88,South,180,0.0,4.0,97,0.00,,,0.10,Wunderground v.1.15,2013-07-02 03:52:00,
2013-07-01 22:57:00,65.1,64.2,29.88,South,179,0.0,4.0,97,0.00,,,0.10,Wunderground v.1.15,2013-07-02 03:57:00,
2013-07-01 23:01:00,65.1,64.2,29.87,South,180,0.0,4.0,97,0.00,,,0.10,Wunderground v.1.15,2013-07-02 04:01:00,
2013-07-01 23:02:00,65.1,64.2,29.87,South,180,0.0,4.0,97,0.00,,,0.10,Wunderground v.1.15,2013-07-02 04:02:00,
2013-07-01 23:07:00,65.0,64.1,29.87,South,179,0.0,4.0,97,0.00,,,0.10,Wunderground v.1.15,2013-07-02 04:07:00,
2013-07-01 23:11:00,65.1,64.2,29.87,SW,219,0.0,4.0,97,0.00,,,0.10,Wunderground v.1.15,2013-07-02 04:11:00,
2013-07-01 23:16:00,65.0,64.1,29.87,WSW,245,0.0,4.0,97,0.00,,,0.10,Wunderground v.1.15,2013-07-02 04:16:00,
2013-07-01 23:22:00,65.0,64.1,29.87,WSW,245,0.0,4.0,97,0.00,,,0.10,Wunderground v.1.15,2013-07-02 04:22:00,
2013-07-01 23:27:00,64.9,64.0,29.87,SSE,155,0.0,4.0,97,0.00,,,0.10,Wunderground v.1.15,2013-07-02 04:27:00,
2013-07-01 23:32:00,65.0,64.1,29.88,SSE,151,0.0,4.0,97,0.00,,,0.10,Wunderground v.1.15,2013-07-02 04:32:00,
2013-07-01 23:38:00,64.9,64.0,29.88,SSE,151,0.0,4.0,97,0.00,,,0.10,Wunderground v.1.15,2013-07-02 04:38:00,
2013-07-01 23:43:00,64.9,64.0,29.88,SSE,152,0.0,4.0,97,0.00,,,0.10,Wunderground v.1.15,2013-07-02 04:43:00,
2013-07-01 23:49:00,64.9,64.0,29.88,SSE,152,0.0,4.0,97,0.00,,,0.10,Wunderground v.1.15,2013-07-02 04:49:00,
2013-07-01 23:54:00,64.9,64.0,29.88,SSE,152,0.0,4.0,97,0.00,,,0.10,Wunderground v.1.15,2013-07-02 04:54:00,
2013-07-01 23:59:00,64.8,63.9,29.89,SSE,168,0.0,4.0,97,0.00,,,0.10,Wunderground v.1.15,2013-07-02 04:59:00,